createdAt,value
2018-04-02T00:02:09.593Z,99693
2018-04-02T00:04:37.635Z,99690
2018-04-02T00:07:06.450Z,99686
2018-04-02T00:09:35.256Z,99682
2018-04-02T00:12:04.082Z,99681
2018-04-02T00:14:33.126Z,99678
2018-04-02T00:17:01.921Z,99673
2018-04-02T00:19:29.955Z,99673
2018-04-02T00:21:57.996Z,99673
2018-04-02T00:24:26.800Z,99672
2018-04-02T00:26:54.857Z,99675
2018-04-02T00:29:22.903Z,99669
2018-04-02T00:31:51.699Z,99672
2018-04-02T00:34:19.749Z,99676
2018-04-02T00:36:47.797Z,99669
2018-04-02T00:39:15.839Z,99675
2018-04-02T00:41:43.892Z,99677
2018-04-02T00:44:12.017Z,99674
2018-04-02T00:46:40.069Z,99674
2018-04-02T00:49:08.112Z,99672
2018-04-02T00:51:36.152Z,99666
2018-04-02T00:54:04.204Z,99667
2018-04-02T00:56:32.244Z,99665
2018-04-02T00:59:00.310Z,99666
2018-04-02T01:01:28.348Z,99657
2018-04-02T01:03:56.393Z,99660
2018-04-02T01:06:24.445Z,99661
2018-04-02T01:08:52.488Z,99660
2018-04-02T01:11:20.525Z,99660
2018-04-02T01:13:48.576Z,99657
2018-04-02T01:16:16.634Z,99657
2018-04-02T01:18:44.781Z,99655
2018-04-02T01:21:12.905Z,99659
2018-04-02T01:23:40.973Z,99654
2018-04-02T01:26:09.008Z,99650
2018-04-02T01:28:37.069Z,99649
2018-04-02T01:31:05.108Z,99649
2018-04-02T01:33:33.149Z,99655
2018-04-02T01:36:01.204Z,99648
2018-04-02T01:38:29.260Z,99649
2018-04-02T01:40:57.380Z,99643
2018-04-02T01:43:25.400Z,99642
2018-04-02T01:45:53.445Z,99639
2018-04-02T01:48:21.676Z,99627
2018-04-02T01:50:49.720Z,99631
2018-04-02T01:53:18.529Z,99628
2018-04-02T01:55:47.355Z,99636
2018-04-02T01:58:16.188Z,99632
2018-04-02T02:00:44.277Z,99637
2018-04-02T02:03:12.320Z,99631
2018-04-02T02:05:40.466Z,99634
2018-04-02T02:08:09.268Z,99633
2018-04-02T02:10:38.097Z,99637
2018-04-02T02:13:06.898Z,99629
2018-04-02T02:15:35.713Z,99625
2018-04-02T02:18:04.516Z,99621
2018-04-02T02:20:33.340Z,99617
2018-04-02T02:23:02.148Z,99618
2018-04-02T02:25:30.969Z,99615
2018-04-02T02:27:59.781Z,99618
2018-04-02T02:30:28.591Z,99615
2018-04-02T02:32:56.648Z,99619
2018-04-02T02:35:24.689Z,99613
2018-04-02T02:37:52.726Z,99607
2018-04-02T02:40:20.776Z,99613
2018-04-02T02:42:48.825Z,99606
2018-04-02T02:45:16.872Z,99605
2018-04-02T02:47:45.917Z,99591
2018-04-02T02:50:14.009Z,99604
2018-04-02T02:52:42.049Z,99598
2018-04-02T02:55:10.202Z,99596
2018-04-02T02:57:39.005Z,99597
2018-04-02T03:00:07.829Z,99595
2018-04-02T03:02:36.746Z,99600
2018-04-02T03:05:05.550Z,99594
2018-04-02T03:07:34.379Z,99603
2018-04-02T03:10:02.422Z,99605
2018-04-02T03:12:30.476Z,99605
2018-04-02T03:14:58.517Z,99608
2018-04-02T03:17:26.567Z,99603
2018-04-02T03:19:55.386Z,99609
2018-04-02T03:22:23.434Z,99606
2018-04-02T03:24:51.481Z,99602
2018-04-02T03:27:19.520Z,99604
2018-04-02T03:29:47.629Z,99601
2018-04-02T03:32:15.664Z,99602
2018-04-02T03:34:43.701Z,99600
2018-04-02T03:37:11.757Z,99596
2018-04-02T03:39:39.801Z,99596
2018-04-02T03:42:07.852Z,99588
2018-04-02T03:44:35.898Z,99588
2018-04-02T03:47:03.952Z,99588
2018-04-02T03:49:32.003Z,99578
2018-04-02T03:52:00.057Z,99576
2018-04-02T03:54:28.093Z,99574
2018-04-02T03:56:56.144Z,99569
2018-04-02T03:59:24.192Z,99568
2018-04-02T04:01:53.021Z,99574
2018-04-02T04:04:21.149Z,99568
2018-04-02T04:06:49.205Z,99573
2018-04-02T04:09:17.249Z,99573
2018-04-02T04:11:45.301Z,99568
2018-04-02T04:14:13.334Z,99567
2018-04-02T04:16:41.384Z,99565
2018-04-02T04:19:09.424Z,99565
2018-04-02T04:21:37.481Z,99568
2018-04-02T04:24:05.536Z,99570
2018-04-02T04:26:33.592Z,99569
2018-04-02T04:29:02.418Z,99565
2018-04-02T04:31:31.240Z,99565
2018-04-02T04:33:59.280Z,99567
2018-04-02T04:36:27.332Z,99559
2018-04-02T04:38:55.397Z,99558
2018-04-02T04:41:23.446Z,99558
2018-04-02T04:43:51.486Z,99552
2018-04-02T04:46:19.530Z,99555
2018-04-02T04:48:47.578Z,99555
2018-04-02T04:51:15.632Z,99561
2018-04-02T04:53:43.688Z,99559
2018-04-02T04:56:12.505Z,99552
2018-04-02T04:58:41.312Z,99554
2018-04-02T05:01:10.132Z,99553
2018-04-02T05:03:38.947Z,99555
2018-04-02T05:06:07.753Z,99552
2018-04-02T05:08:35.807Z,99552
2018-04-02T05:11:03.852Z,99559
2018-04-02T05:13:32.674Z,99558
2018-04-02T05:16:01.493Z,99557
2018-04-02T05:18:30.297Z,99556
2018-04-02T05:20:59.120Z,99558
2018-04-02T05:23:27.926Z,99559
2018-04-02T05:25:56.748Z,99559
2018-04-02T05:28:25.683Z,99558
2018-04-02T05:30:53.807Z,99564
2018-04-02T05:33:22.564Z,99558
2018-04-02T05:35:51.453Z,99560
2018-04-02T05:38:19.497Z,99560
2018-04-02T05:40:48.316Z,99556
2018-04-02T05:43:16.373Z,99557
2018-04-02T05:45:44.510Z,99558
2018-04-02T05:48:12.565Z,99553
2018-04-02T05:50:40.619Z,99554
2018-04-02T05:53:08.688Z,99557
2018-04-02T05:55:37.510Z,99558
2018-04-02T05:58:05.568Z,99554
2018-04-02T06:00:33.640Z,99545
2018-04-02T06:03:01.685Z,99546
2018-04-02T06:05:30.509Z,99544
2018-04-02T06:07:59.337Z,99537
2018-04-02T06:10:27.392Z,99539
2018-04-02T06:12:55.529Z,99539
2018-04-02T06:15:24.343Z,99535
2018-04-02T06:17:52.385Z,99530
2018-04-02T06:20:20.438Z,99536
2018-04-02T06:22:48.501Z,99537
2018-04-02T06:25:16.556Z,99537
2018-04-02T06:27:44.599Z,99534
2018-04-02T06:30:13.425Z,99529
2018-04-02T06:32:42.236Z,99531
2018-04-02T06:35:11.062Z,99533
2018-04-02T06:37:39.869Z,99531
2018-04-02T06:40:08.680Z,99528
2018-04-02T06:42:37.606Z,99531
2018-04-02T06:45:06.449Z,99526
2018-04-02T06:47:35.241Z,99514
2018-04-02T06:50:03.284Z,99516
2018-04-02T06:52:31.341Z,99518
2018-04-02T06:55:00.157Z,99517
2018-04-02T06:57:28.976Z,99510
2018-04-02T06:59:57.021Z,99511
2018-04-02T07:02:25.081Z,99502
2018-04-02T07:04:53.176Z,99495
2018-04-02T07:07:21.244Z,99494
2018-04-02T07:09:50.785Z,99489
2018-04-02T07:12:18.829Z,99485
2018-04-02T07:14:46.878Z,99481
2018-04-02T07:17:15.709Z,99475
2018-04-02T07:19:45.420Z,99475
2018-04-02T07:22:14.472Z,99468
2018-04-02T07:24:42.633Z,99470
2018-04-02T07:27:11.441Z,99468
2018-04-02T07:29:40.246Z,99465
2018-04-02T07:32:08.301Z,99467
2018-04-02T07:34:36.369Z,99462
2018-04-02T07:37:04.419Z,99464
2018-04-02T07:39:33.224Z,99469
2018-04-02T07:42:01.285Z,99468
2018-04-02T07:44:30.121Z,99465
2018-04-02T07:46:58.945Z,99458
2018-04-02T07:49:27.073Z,99450
2018-04-02T07:51:55.716Z,99456
2018-04-02T07:54:24.542Z,99448
2018-04-02T07:56:53.357Z,99447
2018-04-02T07:59:22.179Z,99443
2018-04-02T08:01:50.487Z,99447
2018-04-02T08:04:18.572Z,99444
2018-04-02T08:06:47.401Z,99443
2018-04-02T08:09:15.460Z,99442
2018-04-02T08:11:43.534Z,99434
2018-04-02T08:14:11.637Z,99435
2018-04-02T08:16:39.681Z,99433
2018-04-02T08:19:07.740Z,99425
2018-04-02T08:21:35.785Z,99418
2018-04-02T08:24:03.853Z,99414
2018-04-02T08:26:32.672Z,99410
2018-04-02T08:29:01.505Z,99408
2018-04-02T08:31:29.596Z,99408
2018-04-02T08:33:58.420Z,99405
2018-04-02T08:36:26.508Z,99416
2018-04-02T08:38:55.410Z,99411
2018-04-02T08:41:23.418Z,99405
2018-04-02T08:43:52.419Z,99404
2018-04-02T08:46:20.460Z,99400
2018-04-02T08:48:48.521Z,99386
2018-04-02T08:51:17.333Z,99383
2018-04-02T08:53:45.388Z,99384
2018-04-02T08:56:13.455Z,99386
2018-04-02T08:58:41.542Z,99381
2018-04-02T09:01:10.344Z,99371
2018-04-02T09:03:39.152Z,99373
2018-04-02T09:06:07.212Z,99372
2018-04-02T09:08:35.259Z,99371
2018-04-02T09:11:04.818Z,99365
2018-04-02T09:13:33.666Z,99368
2018-04-02T09:16:01.756Z,99357
2018-04-02T09:18:30.557Z,99365
2018-04-02T09:20:58.609Z,99361
2018-04-02T09:23:26.673Z,99356
2018-04-02T09:25:56.224Z,99358
2018-04-02T09:28:25.049Z,99357
2018-04-02T09:30:53.888Z,99350
2018-04-02T09:33:22.705Z,99348
2018-04-02T09:35:51.509Z,99348
2018-04-02T09:38:19.569Z,99350
2018-04-02T09:40:47.623Z,99358
2018-04-02T09:43:15.690Z,99357
2018-04-02T09:45:43.854Z,99346
2018-04-02T09:48:11.896Z,99345
2018-04-02T09:50:41.464Z,99349
2018-04-02T09:53:10.273Z,99337
2018-04-02T09:55:39.103Z,99330
2018-04-02T09:58:07.968Z,99322
2018-04-02T10:00:35.985Z,99326
2018-04-02T10:03:04.046Z,99320
2018-04-02T10:05:32.111Z,99323
2018-04-02T10:08:00.165Z,99316
2018-04-02T10:10:28.263Z,99317
2018-04-02T10:12:56.284Z,99316
2018-04-02T10:15:26.638Z,99309
2018-04-02T10:17:54.840Z,99301
2018-04-02T10:20:23.644Z,99297
2018-04-02T10:22:52.460Z,99286
2018-04-02T10:25:20.496Z,99278
2018-04-02T10:27:48.544Z,99270
2018-04-02T10:30:16.616Z,99275
2018-04-02T10:32:44.697Z,99262
2018-04-02T10:35:12.754Z,99258
2018-04-02T10:37:41.572Z,99260
2018-04-02T10:40:10.399Z,99247
2018-04-02T10:42:38.436Z,99245
2018-04-02T10:45:06.493Z,99241
2018-04-02T10:47:34.533Z,99234
2018-04-02T10:50:02.599Z,99228
2018-04-02T10:52:30.636Z,99229
2018-04-02T10:54:58.681Z,99218
2018-04-02T10:57:26.743Z,99219
2018-04-02T10:59:54.827Z,99212
2018-04-02T11:02:22.890Z,99204
2018-04-02T11:04:50.954Z,99198
2018-04-02T11:07:19.782Z,99197
2018-04-02T11:09:47.816Z,99190
2018-04-02T11:12:15.881Z,99186
2018-04-02T11:14:43.936Z,99179
2018-04-02T11:17:12.746Z,99175
2018-04-02T11:19:40.808Z,99166
2018-04-02T11:22:08.848Z,99174
2018-04-02T11:24:37.673Z,99154
2018-04-02T11:27:06.481Z,99150
2018-04-02T11:29:35.323Z,99148
2018-04-02T11:32:03.370Z,99145
2018-04-02T11:34:31.413Z,99145
2018-04-02T11:36:59.464Z,99145
2018-04-02T11:39:27.529Z,99132
2018-04-02T11:41:55.707Z,99132
2018-04-02T11:44:24.503Z,99124
2018-04-02T11:46:53.333Z,99123
2018-04-02T11:49:21.373Z,99127
2018-04-02T11:51:49.433Z,99132
2018-04-02T11:54:17.472Z,99128
2018-04-02T11:56:45.540Z,99124
2018-04-02T11:59:13.593Z,99118
2018-04-02T12:01:42.421Z,99119
2018-04-02T12:04:10.470Z,99111
2018-04-02T12:06:38.520Z,99120
2018-04-02T12:09:06.581Z,99122
2018-04-02T12:11:34.621Z,99113
2018-04-02T12:14:02.705Z,99109
2018-04-02T12:16:30.803Z,99115
2018-04-02T12:18:59.717Z,99104
2018-04-02T12:21:28.533Z,99095
2018-04-02T12:23:57.352Z,99091
2018-04-02T12:26:25.400Z,99084
2018-04-02T12:28:53.461Z,99076
2018-04-02T12:31:21.516Z,99071
2018-04-02T12:33:49.564Z,99067
2018-04-02T12:36:17.641Z,99066
2018-04-02T12:38:45.688Z,99058
2018-04-02T12:41:13.753Z,99048
2018-04-02T12:43:41.808Z,99047
2018-04-02T12:46:10.613Z,99038
2018-04-02T12:48:38.673Z,99031
2018-04-02T12:51:06.716Z,99025
2018-04-02T12:53:35.545Z,99015
2018-04-02T12:56:04.361Z,99015
2018-04-02T12:58:33.168Z,99016
2018-04-02T13:01:01.997Z,99006
2018-04-02T13:03:30.052Z,98992
2018-04-02T13:05:58.113Z,98998
2018-04-02T13:08:26.157Z,98997
2018-04-02T13:10:54.219Z,98993
2018-04-02T13:13:22.256Z,98985
2018-04-02T13:15:51.081Z,98984
2018-04-02T13:18:19.892Z,98985
2018-04-02T13:20:48.713Z,98980
2018-04-02T13:23:17.543Z,98976
2018-04-02T13:25:45.596Z,98979
2018-04-02T13:28:13.752Z,98972
2018-04-02T13:30:41.809Z,98973
2018-04-02T13:33:10.633Z,98961
2018-04-02T13:35:39.459Z,98952
2018-04-02T13:38:08.273Z,98952
2018-04-02T13:40:36.342Z,98955
2018-04-02T13:43:05.155Z,98953
2018-04-02T13:45:33.193Z,98953
2018-04-02T13:48:03.575Z,98941
2018-04-02T13:50:31.621Z,98940
2018-04-02T13:53:00.430Z,98933
2018-04-02T13:55:29.264Z,98934
2018-04-02T13:57:57.319Z,98931
2018-04-02T14:00:26.217Z,98920
2018-04-02T14:02:54.273Z,98917
2018-04-02T14:05:22.328Z,98906
2018-04-02T14:07:51.892Z,98902
2018-04-02T14:10:20.710Z,98904
2018-04-02T14:12:49.538Z,98896
2018-04-02T14:15:17.572Z,98889
2018-04-02T14:17:45.633Z,98889
2018-04-02T14:20:13.693Z,98890
2018-04-02T14:22:42.505Z,98887
2018-04-02T14:25:11.329Z,98888
2018-04-02T14:27:40.160Z,98883
2018-04-02T14:30:08.201Z,98886
2018-04-02T14:32:36.248Z,98883
2018-04-02T14:35:05.075Z,98887
2018-04-02T14:37:33.132Z,98877
2018-04-02T14:40:01.253Z,98875
2018-04-02T14:42:30.084Z,98870
2018-04-02T14:44:58.181Z,98869
2018-04-02T14:47:26.231Z,98859
2018-04-02T14:49:54.302Z,98860
2018-04-02T14:52:22.348Z,98858
2018-04-02T14:54:51.194Z,98852
2018-04-02T14:57:19.228Z,98845
2018-04-02T14:59:47.314Z,98845
2018-04-02T15:02:15.352Z,98836
2018-04-02T15:04:44.192Z,98840
2018-04-02T15:07:12.979Z,98833
2018-04-02T15:09:41.809Z,98833
2018-04-02T15:14:33.805Z,98823
2018-04-02T15:17:02.621Z,98818
2018-04-02T15:19:31.448Z,98812
2018-04-02T15:21:59.497Z,98799
2018-04-02T15:24:27.543Z,98798
2018-04-02T15:26:55.629Z,98793
2018-04-02T15:29:24.443Z,98782
2018-04-02T15:31:53.266Z,98774
2018-04-02T15:34:21.315Z,98771
2018-04-02T15:36:49.357Z,98765
2018-04-02T15:39:17.423Z,98756
2018-04-02T15:41:45.475Z,98761
2018-04-02T15:44:13.533Z,98755
2018-04-02T15:46:41.583Z,98748
2018-04-02T15:49:09.649Z,98737
2018-04-02T15:51:37.693Z,98733
2018-04-02T15:54:05.749Z,98753
2018-04-02T15:56:33.826Z,98745
2018-04-02T15:59:02.625Z,98747
2018-04-02T16:01:30.676Z,98757
2018-04-02T16:03:59.499Z,98762
2018-04-02T16:06:27.528Z,98755
2018-04-02T16:08:55.590Z,98758
2018-04-02T16:11:23.689Z,98751
2018-04-02T16:13:52.473Z,98755
2018-04-02T16:16:20.593Z,98749
2018-04-02T16:18:49.416Z,98747
2018-04-02T16:21:18.221Z,98743
2018-04-02T16:23:46.343Z,98746
2018-04-02T16:26:14.324Z,98746
2018-04-02T16:28:43.149Z,98742
2018-04-02T16:31:11.965Z,98749
2018-04-02T16:33:40.778Z,98742
2018-04-02T16:36:09.628Z,98748
2018-04-02T16:38:37.670Z,98741
2018-04-02T16:41:05.713Z,98738
2018-04-02T16:43:33.782Z,98738
2018-04-02T16:46:02.881Z,98733
2018-04-02T16:48:30.947Z,98729
2018-04-02T16:50:58.980Z,98731
2018-04-02T16:53:27.032Z,98722
2018-04-02T16:55:55.098Z,98730
2018-04-02T16:58:23.944Z,98718
2018-04-02T17:00:51.993Z,98707
2018-04-02T17:03:20.051Z,98698
2018-04-02T17:05:48.092Z,98680
2018-04-02T17:08:16.921Z,98676
2018-04-02T17:10:45.741Z,98687
2018-04-02T17:13:14.549Z,98690
2018-04-02T17:15:42.614Z,98680
2018-04-02T17:18:10.661Z,98690
2018-04-02T17:20:38.717Z,98691
2018-04-02T17:23:06.760Z,98684
2018-04-02T17:25:34.816Z,98674
2018-04-02T17:28:03.725Z,98672
2018-04-02T17:30:32.468Z,98680
2018-04-02T17:33:00.539Z,98685
2018-04-02T17:35:28.592Z,98681
2018-04-02T17:37:56.649Z,98681
2018-04-02T17:40:26.227Z,98681
2018-04-02T17:42:54.261Z,98681
2018-04-02T17:45:22.301Z,98679
2018-04-02T17:47:50.356Z,98670
2018-04-02T17:50:19.220Z,98670
2018-04-02T17:52:47.229Z,98670
2018-04-02T17:55:15.273Z,98665
2018-04-02T17:57:45.096Z,98663
2018-04-02T18:00:13.160Z,98664
2018-04-02T18:02:41.185Z,98663
2018-04-02T18:05:09.248Z,98646
2018-04-02T18:07:38.282Z,98637
2018-04-02T18:10:06.270Z,98634
2018-04-02T18:12:34.428Z,98626
2018-04-02T18:15:03.128Z,98614
2018-04-02T18:17:31.932Z,98609
2018-04-02T18:19:59.993Z,98608
2018-04-02T18:22:28.054Z,98592
2018-04-02T18:24:56.865Z,98576
2018-04-02T18:27:25.701Z,98552
2018-04-02T18:29:53.741Z,98533
2018-04-02T18:32:21.856Z,98521
2018-04-02T18:34:49.900Z,98514
2018-04-02T18:37:17.948Z,98532
2018-04-02T18:39:46.126Z,98541
2018-04-02T18:42:14.209Z,98538
2018-04-02T18:44:42.273Z,98539
2018-04-02T18:47:10.309Z,98552
2018-04-02T18:49:38.400Z,98560
2018-04-02T18:52:06.549Z,98559
2018-04-02T18:54:35.396Z,98565
2018-04-02T18:57:03.441Z,98566
2018-04-02T18:59:31.499Z,98575
2018-04-02T19:01:59.616Z,98579
2018-04-02T19:04:27.681Z,98587
2018-04-02T19:06:55.767Z,98583
2018-04-02T19:09:24.580Z,98590
2018-04-02T19:11:53.412Z,98598
2018-04-02T19:14:21.480Z,98602
2018-04-02T19:16:49.516Z,98612
2018-04-02T19:19:17.647Z,98601
2018-04-02T19:21:46.322Z,98590
2018-04-02T19:24:14.391Z,98597
2018-04-02T19:26:43.196Z,98600
2018-04-02T19:29:12.022Z,98611
2018-04-02T19:31:40.107Z,98627
2018-04-02T19:34:08.105Z,98626
2018-04-02T19:36:36.975Z,98628
2018-04-02T19:39:05.021Z,98628
2018-04-02T19:41:33.861Z,98630
2018-04-02T19:44:01.901Z,98639
2018-04-02T19:46:30.029Z,98640
2018-04-02T19:48:58.837Z,98637
2018-04-02T19:51:26.878Z,98638
2018-04-02T19:53:54.932Z,98638
2018-04-02T19:56:22.981Z,98636
2018-04-02T19:58:51.036Z,98635
2018-04-02T20:01:19.864Z,98635
2018-04-02T20:03:47.924Z,98636
2018-04-02T20:06:15.968Z,98639
2018-04-02T20:08:44.041Z,98638
2018-04-02T20:11:12.068Z,98630
2018-04-02T20:13:40.125Z,98627
2018-04-02T20:16:08.955Z,98628
2018-04-02T20:18:37.763Z,98630
2018-04-02T20:21:06.593Z,98624
2018-04-02T20:23:34.637Z,98624
2018-04-02T20:26:02.673Z,98614
2018-04-02T20:28:31.502Z,98614
2018-04-02T20:30:59.563Z,98609
2018-04-02T20:33:27.603Z,98614
2018-04-02T20:35:55.670Z,98617
2018-04-02T20:38:23.708Z,98622
2018-04-02T20:40:51.761Z,98625
2018-04-02T20:43:20.597Z,98628
2018-04-02T20:45:49.409Z,98625
2018-04-02T20:48:18.228Z,98629
2018-04-02T20:50:46.271Z,98629
2018-04-02T20:53:14.328Z,98639
2018-04-02T20:55:42.368Z,98637
2018-04-02T20:58:10.601Z,98639
2018-04-02T21:00:39.406Z,98638
2018-04-02T21:03:07.444Z,98643
2018-04-02T21:05:35.504Z,98646
2018-04-02T21:08:04.351Z,98650
2018-04-02T21:10:32.392Z,98645
2018-04-02T21:13:00.438Z,98643
2018-04-02T21:15:28.497Z,98647
2018-04-02T21:17:56.626Z,98650
2018-04-02T21:20:24.685Z,98655
2018-04-02T21:22:53.512Z,98672
2018-04-02T21:25:21.573Z,98660
2018-04-02T21:27:49.617Z,98667
2018-04-02T21:30:18.441Z,98663
2018-04-02T21:32:47.266Z,98675
2018-04-02T21:35:15.333Z,98677
2018-04-02T21:37:44.153Z,98672
2018-04-02T21:40:12.961Z,98667
2018-04-02T21:42:41.021Z,98673
2018-04-02T21:45:09.082Z,98668
2018-04-02T21:47:37.145Z,98670
2018-04-02T21:50:05.195Z,98663
2018-04-02T21:52:33.257Z,98654
2018-04-02T21:55:02.082Z,98658
2018-04-02T21:57:30.889Z,98659
2018-04-02T21:59:59.716Z,98648
2018-04-02T22:02:27.758Z,98635
2018-04-02T22:04:55.816Z,98645
2018-04-02T22:07:23.861Z,98640
2018-04-02T22:09:51.916Z,98636
2018-04-02T22:12:19.966Z,98641
2018-04-02T22:14:48.792Z,98630
2018-04-02T22:17:16.840Z,98619
2018-04-02T22:19:44.885Z,98622
2018-04-02T22:22:13.708Z,98617
2018-04-02T22:24:42.517Z,98603
2018-04-02T22:27:11.333Z,98610
2018-04-02T22:29:39.377Z,98600
2018-04-02T22:32:07.441Z,98601
2018-04-02T22:34:36.253Z,98608
2018-04-02T22:37:05.090Z,98591
2018-04-02T22:39:33.134Z,98591
2018-04-02T22:42:01.177Z,98598
2018-04-02T22:44:29.242Z,98589
2018-04-02T22:46:57.293Z,98604
2018-04-02T22:49:25.338Z,98594
2018-04-02T22:51:54.161Z,98588
2018-04-02T22:54:22.970Z,98590
2018-04-02T22:56:51.029Z,98590
2018-04-02T22:59:19.079Z,98585
2018-04-02T23:01:47.881Z,98591
2018-04-02T23:04:16.708Z,98602
2018-04-02T23:06:44.772Z,98604
2018-04-02T23:09:12.813Z,98611
2018-04-02T23:11:40.868Z,98615
2018-04-02T23:14:08.930Z,98615
2018-04-02T23:16:36.979Z,98620
2018-04-02T23:19:05.814Z,98622
2018-04-02T23:21:33.868Z,98626
2018-04-02T23:24:01.916Z,98628
2018-04-02T23:26:29.974Z,98630
2018-04-02T23:28:58.020Z,98637
2018-04-02T23:31:26.081Z,98628
2018-04-02T23:33:54.895Z,98630
2018-04-02T23:36:23.707Z,98637
2018-04-02T23:38:52.534Z,98641
2018-04-02T23:41:21.337Z,98633
2018-04-02T23:43:50.167Z,98637
2018-04-02T23:46:18.964Z,98647
2018-04-02T23:48:47.786Z,98653
2018-04-02T23:51:15.841Z,98663
2018-04-02T23:53:43.896Z,98660
2018-04-02T23:56:12.756Z,98667
2018-04-02T23:58:40.801Z,98672
